sensor_id;sensor_type;location;lat;lon;timestamp;P1;durP1;ratioP1;P2;durP2;ratioP2
13208;SDS011;6669;42.678;23.332;2023-05-24T00:01:22;4.63;;;3.97;;
13208;SDS011;6669;42.678;23.332;2023-05-24T00:03:52;5.47;;;4.88;;
13208;SDS011;6669;42.678;23.332;2023-05-24T00:06:24;3.85;;;3.40;;
13208;SDS011;6669;42.678;23.332;2023-05-24T00:08:53;6.53;;;4.45;;
13208;SDS011;6669;42.678;23.332;2023-05-24T00:11:22;6.13;;;3.90;;
13208;SDS011;6669;42.678;23.332;2023-05-24T00:13:50;6.75;;;4.43;;
13208;SDS011;6669;42.678;23.332;2023-05-24T00:16:18;5.35;;;4.05;;
13208;SDS011;6669;42.678;23.332;2023-05-24T00:18:46;4.55;;;3.97;;
13208;SDS011;6669;42.678;23.332;2023-05-24T00:21:15;5.00;;;4.20;;
13208;SDS011;6669;42.678;23.332;2023-05-24T00:23:43;4.70;;;3.85;;
13208;SDS011;6669;42.678;23.332;2023-05-24T00:26:11;4.72;;;3.92;;
13208;SDS011;6669;42.678;23.332;2023-05-24T00:28:40;4.82;;;4.22;;
13208;SDS011;6669;42.678;23.332;2023-05-24T00:31:08;4.50;;;4.10;;
13208;SDS011;6669;42.678;23.332;2023-05-24T00:33:36;4.07;;;3.67;;
13208;SDS011;6669;42.678;23.332;2023-05-24T00:36:04;4.35;;;3.80;;
13208;SDS011;6669;42.678;23.332;2023-05-24T00:38:32;5.10;;;3.95;;
13208;SDS011;6669;42.678;23.332;2023-05-24T00:41:00;4.10;;;3.53;;
13208;SDS011;6669;42.678;23.332;2023-05-24T00:43:28;4.32;;;3.75;;
13208;SDS011;6669;42.678;23.332;2023-05-24T00:46:04;4.70;;;3.58;;
13208;SDS011;6669;42.678;23.332;2023-05-24T00:48:45;4.15;;;3.70;;
13208;SDS011;6669;42.678;23.332;2023-05-24T00:51:14;3.75;;;3.38;;
13208;SDS011;6669;42.678;23.332;2023-05-24T00:53:43;4.80;;;3.83;;
13208;SDS011;6669;42.678;23.332;2023-05-24T00:56:13;3.92;;;3.53;;
13208;SDS011;6669;42.678;23.332;2023-05-24T00:58:42;3.60;;;3.28;;
13208;SDS011;6669;42.678;23.332;2023-05-24T01:01:11;5.82;;;4.00;;
13208;SDS011;6669;42.678;23.332;2023-05-24T01:03:40;4.80;;;3.50;;
13208;SDS011;6669;42.678;23.332;2023-05-24T01:06:08;3.63;;;3.33;;
13208;SDS011;6669;42.678;23.332;2023-05-24T01:11:34;4.13;;;3.22;;
13208;SDS011;6669;42.678;23.332;2023-05-24T01:14:13;4.03;;;3.35;;
13208;SDS011;6669;42.678;23.332;2023-05-24T01:16:50;4.63;;;3.72;;
13208;SDS011;6669;42.678;23.332;2023-05-24T01:19:39;6.28;;;3.78;;
13208;SDS011;6669;42.678;23.332;2023-05-24T01:25:26;3.88;;;3.38;;
13208;SDS011;6669;42.678;23.332;2023-05-24T01:28:10;6.97;;;4.55;;
13208;SDS011;6669;42.678;23.332;2023-05-24T01:30:38;4.70;;;3.30;;
13208;SDS011;6669;42.678;23.332;2023-05-24T01:33:07;5.25;;;3.97;;
13208;SDS011;6669;42.678;23.332;2023-05-24T01:35:36;4.10;;;3.70;;
13208;SDS011;6669;42.678;23.332;2023-05-24T01:38:05;3.53;;;3.22;;
13208;SDS011;6669;42.678;23.332;2023-05-24T01:40:34;4.63;;;3.87;;
13208;SDS011;6669;42.678;23.332;2023-05-24T01:43:06;4.03;;;3.63;;
13208;SDS011;6669;42.678;23.332;2023-05-24T01:45:43;5.70;;;4.10;;
13208;SDS011;6669;42.678;23.332;2023-05-24T01:48:23;4.35;;;3.40;;
13208;SDS011;6669;42.678;23.332;2023-05-24T01:50:58;5.53;;;3.90;;
13208;SDS011;6669;42.678;23.332;2023-05-24T01:53:28;3.97;;;3.47;;
13208;SDS011;6669;42.678;23.332;2023-05-24T01:56:00;3.77;;;3.37;;
13208;SDS011;6669;42.678;23.332;2023-05-24T01:58:32;4.17;;;3.60;;
13208;SDS011;6669;42.678;23.332;2023-05-24T02:01:02;3.60;;;3.25;;
13208;SDS011;6669;42.678;23.332;2023-05-24T02:03:31;4.30;;;3.63;;
13208;SDS011;6669;42.678;23.332;2023-05-24T02:06:00;4.63;;;4.20;;
13208;SDS011;6669;42.678;23.332;2023-05-24T02:08:28;4.70;;;3.65;;
13208;SDS011;6669;42.678;23.332;2023-05-24T02:10:56;5.57;;;3.92;;
13208;SDS011;6669;42.678;23.332;2023-05-24T02:13:24;5.55;;;3.63;;
13208;SDS011;6669;42.678;23.332;2023-05-24T02:15:54;4.50;;;3.67;;
13208;SDS011;6669;42.678;23.332;2023-05-24T02:18:21;4.28;;;3.67;;
13208;SDS011;6669;42.678;23.332;2023-05-24T02:20:49;4.43;;;3.70;;
13208;SDS011;6669;42.678;23.332;2023-05-24T02:23:17;4.78;;;3.70;;
13208;SDS011;6669;42.678;23.332;2023-05-24T02:25:46;6.25;;;3.55;;
13208;SDS011;6669;42.678;23.332;2023-05-24T02:28:14;5.23;;;3.67;;
13208;SDS011;6669;42.678;23.332;2023-05-24T02:30:42;4.13;;;3.42;;
13208;SDS011;6669;42.678;23.332;2023-05-24T02:33:12;6.83;;;3.70;;
13208;SDS011;6669;42.678;23.332;2023-05-24T02:35:40;4.33;;;3.47;;
13208;SDS011;6669;42.678;23.332;2023-05-24T02:38:08;4.75;;;3.70;;
13208;SDS011;6669;42.678;23.332;2023-05-24T02:40:36;5.03;;;4.03;;
13208;SDS011;6669;42.678;23.332;2023-05-24T02:43:04;4.70;;;4.07;;
13208;SDS011;6669;42.678;23.332;2023-05-24T02:45:31;4.23;;;3.83;;
13208;SDS011;6669;42.678;23.332;2023-05-24T02:47:59;4.90;;;3.47;;
13208;SDS011;6669;42.678;23.332;2023-05-24T02:50:29;4.18;;;3.70;;
13208;SDS011;6669;42.678;23.332;2023-05-24T02:52:58;3.50;;;3.17;;
13208;SDS011;6669;42.678;23.332;2023-05-24T02:55:26;4.47;;;3.67;;
13208;SDS011;6669;42.678;23.332;2023-05-24T02:57:54;5.90;;;3.60;;
13208;SDS011;6669;42.678;23.332;2023-05-24T03:00:22;3.93;;;3.53;;
13208;SDS011;6669;42.678;23.332;2023-05-24T03:02:50;3.87;;;3.47;;
13208;SDS011;6669;42.678;23.332;2023-05-24T03:05:18;5.90;;;4.17;;
13208;SDS011;6669;42.678;23.332;2023-05-24T03:07:48;5.63;;;3.75;;
13208;SDS011;6669;42.678;23.332;2023-05-24T03:10:16;4.15;;;3.80;;
13208;SDS011;6669;42.678;23.332;2023-05-24T03:12:44;6.20;;;4.05;;
13208;SDS011;6669;42.678;23.332;2023-05-24T03:15:12;6.25;;;4.43;;
13208;SDS011;6669;42.678;23.332;2023-05-24T03:17:40;4.83;;;4.00;;
13208;SDS011;6669;42.678;23.332;2023-05-24T03:20:08;7.27;;;4.17;;
13208;SDS011;6669;42.678;23.332;2023-05-24T03:22:37;5.28;;;4.32;;
13208;SDS011;6669;42.678;23.332;2023-05-24T03:25:07;4.93;;;4.13;;
13208;SDS011;6669;42.678;23.332;2023-05-24T03:27:35;4.73;;;4.23;;
13208;SDS011;6669;42.678;23.332;2023-05-24T03:30:03;4.10;;;3.57;;
13208;SDS011;6669;42.678;23.332;2023-05-24T03:32:32;7.03;;;4.10;;
13208;SDS011;6669;42.678;23.332;2023-05-24T03:35:00;4.85;;;3.97;;
13208;SDS011;6669;42.678;23.332;2023-05-24T03:37:28;5.40;;;4.68;;
13208;SDS011;6669;42.678;23.332;2023-05-24T03:39:56;5.30;;;4.20;;
13208;SDS011;6669;42.678;23.332;2023-05-24T03:42:25;5.68;;;4.32;;
13208;SDS011;6669;42.678;23.332;2023-05-24T03:44:53;9.15;;;4.50;;
13208;SDS011;6669;42.678;23.332;2023-05-24T03:47:21;5.10;;;4.15;;
13208;SDS011;6669;42.678;23.332;2023-05-24T03:49:49;4.65;;;4.05;;
13208;SDS011;6669;42.678;23.332;2023-05-24T03:52:17;4.60;;;4.10;;
13208;SDS011;6669;42.678;23.332;2023-05-24T03:54:45;4.30;;;3.90;;
13208;SDS011;6669;42.678;23.332;2023-05-24T03:57:14;5.37;;;4.20;;
13208;SDS011;6669;42.678;23.332;2023-05-24T03:59:43;4.87;;;4.27;;
13208;SDS011;6669;42.678;23.332;2023-05-24T04:02:11;4.95;;;3.80;;
13208;SDS011;6669;42.678;23.332;2023-05-24T04:04:40;6.60;;;4.35;;
13208;SDS011;6669;42.678;23.332;2023-05-24T04:07:07;5.72;;;4.38;;
13208;SDS011;6669;42.678;23.332;2023-05-24T04:09:37;4.80;;;3.97;;
13208;SDS011;6669;42.678;23.332;2023-05-24T04:12:05;5.13;;;4.63;;
13208;SDS011;6669;42.678;23.332;2023-05-24T04:14:33;4.93;;;4.43;;
13208;SDS011;6669;42.678;23.332;2023-05-24T04:17:03;4.53;;;4.05;;
13208;SDS011;6669;42.678;23.332;2023-05-24T04:19:33;5.28;;;4.50;;
13208;SDS011;6669;42.678;23.332;2023-05-24T04:22:01;5.40;;;4.22;;
13208;SDS011;6669;42.678;23.332;2023-05-24T04:24:29;4.80;;;4.40;;
13208;SDS011;6669;42.678;23.332;2023-05-24T04:26:57;4.38;;;3.83;;
13208;SDS011;6669;42.678;23.332;2023-05-24T04:29:25;5.03;;;3.95;;
13208;SDS011;6669;42.678;23.332;2023-05-24T04:31:53;5.35;;;4.60;;
13208;SDS011;6669;42.678;23.332;2023-05-24T04:34:22;4.93;;;4.18;;
13208;SDS011;6669;42.678;23.332;2023-05-24T04:36:50;6.22;;;4.40;;
13208;SDS011;6669;42.678;23.332;2023-05-24T04:39:18;5.68;;;4.38;;
13208;SDS011;6669;42.678;23.332;2023-05-24T04:41:47;4.80;;;4.30;;
13208;SDS011;6669;42.678;23.332;2023-05-24T04:44:16;4.63;;;4.18;;
13208;SDS011;6669;42.678;23.332;2023-05-24T04:46:44;4.97;;;4.25;;
13208;SDS011;6669;42.678;23.332;2023-05-24T04:49:12;5.25;;;4.25;;
13208;SDS011;6669;42.678;23.332;2023-05-24T04:51:41;4.90;;;4.38;;
13208;SDS011;6669;42.678;23.332;2023-05-24T04:54:09;4.97;;;4.45;;
13208;SDS011;6669;42.678;23.332;2023-05-24T04:56:37;5.50;;;4.50;;
13208;SDS011;6669;42.678;23.332;2023-05-24T04:59:06;4.53;;;4.13;;
13208;SDS011;6669;42.678;23.332;2023-05-24T05:01:34;4.30;;;3.90;;
13208;SDS011;6669;42.678;23.332;2023-05-24T05:04:03;5.47;;;4.50;;
13208;SDS011;6669;42.678;23.332;2023-05-24T05:06:31;5.20;;;4.70;;
13208;SDS011;6669;42.678;23.332;2023-05-24T05:09:05;5.45;;;4.72;;
13208;SDS011;6669;42.678;23.332;2023-05-24T05:11:34;5.50;;;4.53;;
13208;SDS011;6669;42.678;23.332;2023-05-24T05:14:03;4.95;;;4.47;;
13208;SDS011;6669;42.678;23.332;2023-05-24T05:16:31;6.30;;;4.78;;
13208;SDS011;6669;42.678;23.332;2023-05-24T05:18:59;5.93;;;5.10;;
13208;SDS011;6669;42.678;23.332;2023-05-24T05:21:29;5.10;;;4.45;;
13208;SDS011;6669;42.678;23.332;2023-05-24T05:23:59;4.78;;;4.30;;
13208;SDS011;6669;42.678;23.332;2023-05-24T05:26:28;5.63;;;3.95;;
13208;SDS011;6669;42.678;23.332;2023-05-24T05:28:57;5.63;;;4.97;;
13208;SDS011;6669;42.678;23.332;2023-05-24T05:31:25;4.95;;;4.30;;
13208;SDS011;6669;42.678;23.332;2023-05-24T05:33:53;7.07;;;5.45;;
13208;SDS011;6669;42.678;23.332;2023-05-24T05:36:21;14.35;;;11.13;;
13208;SDS011;6669;42.678;23.332;2023-05-24T05:38:49;6.90;;;6.05;;
13208;SDS011;6669;42.678;23.332;2023-05-24T05:41:17;6.95;;;5.07;;
13208;SDS011;6669;42.678;23.332;2023-05-24T05:43:46;5.32;;;4.53;;
13208;SDS011;6669;42.678;23.332;2023-05-24T05:46:14;5.78;;;4.40;;
13208;SDS011;6669;42.678;23.332;2023-05-24T05:48:42;4.78;;;4.32;;
13208;SDS011;6669;42.678;23.332;2023-05-24T05:51:11;6.03;;;4.57;;
13208;SDS011;6669;42.678;23.332;2023-05-24T05:53:40;5.60;;;4.13;;
13208;SDS011;6669;42.678;23.332;2023-05-24T05:56:07;6.70;;;4.35;;
13208;SDS011;6669;42.678;23.332;2023-05-24T05:58:35;5.03;;;3.90;;
13208;SDS011;6669;42.678;23.332;2023-05-24T06:01:05;5.25;;;4.22;;
13208;SDS011;6669;42.678;23.332;2023-05-24T06:03:33;5.57;;;4.28;;
13208;SDS011;6669;42.678;23.332;2023-05-24T06:06:02;5.78;;;5.18;;
13208;SDS011;6669;42.678;23.332;2023-05-24T06:08:30;6.07;;;4.68;;
13208;SDS011;6669;42.678;23.332;2023-05-24T06:11:00;5.35;;;4.65;;
13208;SDS011;6669;42.678;23.332;2023-05-24T06:13:28;4.57;;;4.18;;
13208;SDS011;6669;42.678;23.332;2023-05-24T06:15:58;5.50;;;4.32;;
13208;SDS011;6669;42.678;23.332;2023-05-24T06:18:28;4.70;;;4.30;;
13208;SDS011;6669;42.678;23.332;2023-05-24T06:20:57;7.15;;;6.30;;
13208;SDS011;6669;42.678;23.332;2023-05-24T06:23:26;5.35;;;4.85;;
13208;SDS011;6669;42.678;23.332;2023-05-24T06:25:54;4.85;;;4.00;;
13208;SDS011;6669;42.678;23.332;2023-05-24T06:28:22;5.10;;;4.35;;
13208;SDS011;6669;42.678;23.332;2023-05-24T06:30:50;4.63;;;4.18;;
13208;SDS011;6669;42.678;23.332;2023-05-24T06:33:18;4.90;;;4.40;;
13208;SDS011;6669;42.678;23.332;2023-05-24T06:35:47;4.13;;;3.72;;
13208;SDS011;6669;42.678;23.332;2023-05-24T06:38:15;4.97;;;4.00;;
13208;SDS011;6669;42.678;23.332;2023-05-24T06:40:44;4.82;;;3.70;;
13208;SDS011;6669;42.678;23.332;2023-05-24T06:43:12;4.30;;;3.72;;
13208;SDS011;6669;42.678;23.332;2023-05-24T06:45:40;4.75;;;4.25;;
13208;SDS011;6669;42.678;23.332;2023-05-24T06:48:08;4.85;;;3.85;;
13208;SDS011;6669;42.678;23.332;2023-05-24T06:50:36;4.53;;;3.67;;
13208;SDS011;6669;42.678;23.332;2023-05-24T06:53:09;4.50;;;3.75;;
13208;SDS011;6669;42.678;23.332;2023-05-24T06:55:37;4.53;;;4.03;;
13208;SDS011;6669;42.678;23.332;2023-05-24T06:58:05;3.90;;;3.50;;
13208;SDS011;6669;42.678;23.332;2023-05-24T07:00:33;4.20;;;3.67;;
13208;SDS011;6669;42.678;23.332;2023-05-24T07:03:01;4.57;;;3.85;;
13208;SDS011;6669;42.678;23.332;2023-05-24T07:05:30;3.88;;;3.47;;
13208;SDS011;6669;42.678;23.332;2023-05-24T07:07:58;3.72;;;3.42;;
13208;SDS011;6669;42.678;23.332;2023-05-24T07:10:27;5.13;;;3.97;;
13208;SDS011;6669;42.678;23.332;2023-05-24T07:12:55;3.50;;;3.17;;
13208;SDS011;6669;42.678;23.332;2023-05-24T07:15:23;4.57;;;3.70;;
13208;SDS011;6669;42.678;23.332;2023-05-24T07:17:51;3.47;;;3.10;;
13208;SDS011;6669;42.678;23.332;2023-05-24T07:20:20;3.65;;;3.33;;
13208;SDS011;6669;42.678;23.332;2023-05-24T07:22:48;4.22;;;3.40;;
13208;SDS011;6669;42.678;23.332;2023-05-24T07:25:17;4.50;;;3.50;;
13208;SDS011;6669;42.678;23.332;2023-05-24T07:27:46;5.18;;;3.30;;
13208;SDS011;6669;42.678;23.332;2023-05-24T07:30:15;4.72;;;4.05;;
13208;SDS011;6669;42.678;23.332;2023-05-24T07:32:57;4.30;;;3.90;;
13208;SDS011;6669;42.678;23.332;2023-05-24T07:35:25;3.97;;;3.58;;
13208;SDS011;6669;42.678;23.332;2023-05-24T07:37:54;4.07;;;3.67;;
13208;SDS011;6669;42.678;23.332;2023-05-24T07:40:22;5.47;;;4.05;;
13208;SDS011;6669;42.678;23.332;2023-05-24T07:42:52;5.43;;;4.93;;
13208;SDS011;6669;42.678;23.332;2023-05-24T07:45:20;5.45;;;3.90;;
13208;SDS011;6669;42.678;23.332;2023-05-24T07:47:48;3.92;;;3.50;;
13208;SDS011;6669;42.678;23.332;2023-05-24T07:50:16;3.80;;;3.50;;
13208;SDS011;6669;42.678;23.332;2023-05-24T07:52:45;3.97;;;3.55;;
13208;SDS011;6669;42.678;23.332;2023-05-24T07:55:14;3.42;;;3.08;;
13208;SDS011;6669;42.678;23.332;2023-05-24T07:57:42;3.70;;;3.28;;
13208;SDS011;6669;42.678;23.332;2023-05-24T08:00:11;5.15;;;3.58;;
13208;SDS011;6669;42.678;23.332;2023-05-24T08:02:41;4.53;;;3.40;;
13208;SDS011;6669;42.678;23.332;2023-05-24T08:05:12;3.97;;;3.13;;
13208;SDS011;6669;42.678;23.332;2023-05-24T08:07:40;3.63;;;3.33;;
13208;SDS011;6669;42.678;23.332;2023-05-24T08:10:08;4.47;;;3.47;;
13208;SDS011;6669;42.678;23.332;2023-05-24T08:12:38;3.58;;;2.72;;
13208;SDS011;6669;42.678;23.332;2023-05-24T08:15:06;3.78;;;3.25;;
13208;SDS011;6669;42.678;23.332;2023-05-24T08:17:36;7.20;;;3.60;;
13208;SDS011;6669;42.678;23.332;2023-05-24T08:20:05;4.38;;;3.22;;
13208;SDS011;6669;42.678;23.332;2023-05-24T08:22:35;3.38;;;2.70;;
13208;SDS011;6669;42.678;23.332;2023-05-24T08:25:03;2.78;;;2.53;;
13208;SDS011;6669;42.678;23.332;2023-05-24T08:27:32;2.40;;;2.10;;
13208;SDS011;6669;42.678;23.332;2023-05-24T08:30:00;2.28;;;2.08;;
13208;SDS011;6669;42.678;23.332;2023-05-24T08:32:29;4.15;;;3.00;;
13208;SDS011;6669;42.678;23.332;2023-05-24T08:34:59;3.60;;;2.58;;
13208;SDS011;6669;42.678;23.332;2023-05-24T08:37:45;2.55;;;2.17;;
13208;SDS011;6669;42.678;23.332;2023-05-24T08:40:15;3.03;;;2.63;;
13208;SDS011;6669;42.678;23.332;2023-05-24T08:42:43;2.70;;;2.50;;
13208;SDS011;6669;42.678;23.332;2023-05-24T08:45:14;3.38;;;2.55;;
13208;SDS011;6669;42.678;23.332;2023-05-24T08:47:44;2.60;;;2.40;;
13208;SDS011;6669;42.678;23.332;2023-05-24T08:50:15;2.40;;;2.20;;
13208;SDS011;6669;42.678;23.332;2023-05-24T08:52:44;2.30;;;2.10;;
13208;SDS011;6669;42.678;23.332;2023-05-24T08:55:12;2.92;;;2.10;;
13208;SDS011;6669;42.678;23.332;2023-05-24T08:57:42;2.10;;;1.90;;
13208;SDS011;6669;42.678;23.332;2023-05-24T09:00:12;2.35;;;2.15;;
13208;SDS011;6669;42.678;23.332;2023-05-24T09:02:41;2.30;;;2.08;;
13208;SDS011;6669;42.678;23.332;2023-05-24T09:05:11;2.65;;;2.33;;
13208;SDS011;6669;42.678;23.332;2023-05-24T09:07:44;2.50;;;2.30;;
13208;SDS011;6669;42.678;23.332;2023-05-24T09:10:12;3.35;;;2.55;;
13208;SDS011;6669;42.678;23.332;2023-05-24T09:12:43;2.70;;;2.25;;
13208;SDS011;6669;42.678;23.332;2023-05-24T09:15:12;3.50;;;2.85;;
13208;SDS011;6669;42.678;23.332;2023-05-24T09:17:40;2.60;;;1.70;;
13208;SDS011;6669;42.678;23.332;2023-05-24T09:20:09;2.50;;;2.30;;
13208;SDS011;6669;42.678;23.332;2023-05-24T09:22:39;2.22;;;1.98;;
13208;SDS011;6669;42.678;23.332;2023-05-24T09:25:12;1.88;;;1.77;;
13208;SDS011;6669;42.678;23.332;2023-05-24T09:27:41;2.08;;;1.88;;
13208;SDS011;6669;42.678;23.332;2023-05-24T09:30:14;2.30;;;1.98;;
13208;SDS011;6669;42.678;23.332;2023-05-24T09:32:48;1.50;;;1.40;;
13208;SDS011;6669;42.678;23.332;2023-05-24T09:35:22;2.00;;;1.80;;
13208;SDS011;6669;42.678;23.332;2023-05-24T09:37:55;1.83;;;1.73;;
13208;SDS011;6669;42.678;23.332;2023-05-24T09:40:27;1.92;;;1.83;;
13208;SDS011;6669;42.678;23.332;2023-05-24T09:43:01;2.15;;;1.90;;
13208;SDS011;6669;42.678;23.332;2023-05-24T09:45:31;2.17;;;1.88;;
13208;SDS011;6669;42.678;23.332;2023-05-24T09:48:02;1.92;;;1.75;;
13208;SDS011;6669;42.678;23.332;2023-05-24T09:50:30;1.90;;;1.80;;
13208;SDS011;6669;42.678;23.332;2023-05-24T09:52:58;1.60;;;1.50;;
13208;SDS011;6669;42.678;23.332;2023-05-24T09:55:30;1.77;;;1.67;;
13208;SDS011;6669;42.678;23.332;2023-05-24T09:58:03;2.63;;;1.70;;
13208;SDS011;6669;42.678;23.332;2023-05-24T10:00:33;1.67;;;1.58;;
13208;SDS011;6669;42.678;23.332;2023-05-24T10:03:06;2.30;;;2.10;;
13208;SDS011;6669;42.678;23.332;2023-05-24T10:05:37;2.42;;;2.20;;
13208;SDS011;6669;42.678;23.332;2023-05-24T10:08:08;1.83;;;1.67;;
13208;SDS011;6669;42.678;23.332;2023-05-24T10:10:38;3.28;;;1.67;;
13208;SDS011;6669;42.678;23.332;2023-05-24T10:13:08;4.30;;;1.65;;
13208;SDS011;6669;42.678;23.332;2023-05-24T10:15:37;2.10;;;1.90;;
13208;SDS011;6669;42.678;23.332;2023-05-24T10:18:05;1.90;;;1.70;;
13208;SDS011;6669;42.678;23.332;2023-05-24T10:20:39;1.95;;;1.85;;
13208;SDS011;6669;42.678;23.332;2023-05-24T10:23:08;2.40;;;2.20;;
13208;SDS011;6669;42.678;23.332;2023-05-24T10:25:40;2.03;;;1.83;;
13208;SDS011;6669;42.678;23.332;2023-05-24T10:28:12;1.80;;;1.70;;
13208;SDS011;6669;42.678;23.332;2023-05-24T10:30:43;2.78;;;2.22;;
13208;SDS011;6669;42.678;23.332;2023-05-24T10:33:19;1.90;;;1.70;;
13208;SDS011;6669;42.678;23.332;2023-05-24T10:35:49;1.70;;;1.60;;
13208;SDS011;6669;42.678;23.332;2023-05-24T10:38:19;2.72;;;2.00;;
13208;SDS011;6669;42.678;23.332;2023-05-24T10:40:52;1.95;;;1.70;;
13208;SDS011;6669;42.678;23.332;2023-05-24T10:43:33;3.10;;;1.45;;
13208;SDS011;6669;42.678;23.332;2023-05-24T10:46:07;2.00;;;1.80;;
13208;SDS011;6669;42.678;23.332;2023-05-24T10:48:37;2.17;;;1.98;;
13208;SDS011;6669;42.678;23.332;2023-05-24T10:54:13;2.95;;;1.60;;
13208;SDS011;6669;42.678;23.332;2023-05-24T10:56:45;2.10;;;1.90;;
13208;SDS011;6669;42.678;23.332;2023-05-24T10:59:22;1.98;;;1.80;;
13208;SDS011;6669;42.678;23.332;2023-05-24T11:01:55;2.20;;;2.00;;
13208;SDS011;6669;42.678;23.332;2023-05-24T11:04:25;1.83;;;1.73;;
13208;SDS011;6669;42.678;23.332;2023-05-24T11:06:56;2.10;;;1.90;;
13208;SDS011;6669;42.678;23.332;2023-05-24T11:09:28;1.70;;;1.60;;
13208;SDS011;6669;42.678;23.332;2023-05-24T11:12:01;1.70;;;1.52;;
13208;SDS011;6669;42.678;23.332;2023-05-24T11:14:33;1.95;;;1.77;;
13208;SDS011;6669;42.678;23.332;2023-05-24T11:17:05;1.65;;;1.55;;
13208;SDS011;6669;42.678;23.332;2023-05-24T11:19:35;1.58;;;1.42;;
13208;SDS011;6669;42.678;23.332;2023-05-24T11:22:05;1.70;;;1.60;;
13208;SDS011;6669;42.678;23.332;2023-05-24T11:24:34;5.25;;;3.83;;
13208;SDS011;6669;42.678;23.332;2023-05-24T11:27:05;2.95;;;2.53;;
13208;SDS011;6669;42.678;23.332;2023-05-24T11:29:38;1.55;;;1.45;;
13208;SDS011;6669;42.678;23.332;2023-05-24T11:32:08;1.60;;;1.50;;
13208;SDS011;6669;42.678;23.332;2023-05-24T11:34:36;1.60;;;1.50;;
13208;SDS011;6669;42.678;23.332;2023-05-24T11:37:05;1.80;;;1.70;;
13208;SDS011;6669;42.678;23.332;2023-05-24T11:39:34;1.70;;;1.60;;
13208;SDS011;6669;42.678;23.332;2023-05-24T11:42:06;4.10;;;1.60;;
13208;SDS011;6669;42.678;23.332;2023-05-24T11:44:35;1.60;;;1.50;;
13208;SDS011;6669;42.678;23.332;2023-05-24T11:47:05;2.00;;;1.83;;
13208;SDS011;6669;42.678;23.332;2023-05-24T11:49:34;1.80;;;1.70;;
13208;SDS011;6669;42.678;23.332;2023-05-24T11:52:02;1.75;;;1.40;;
13208;SDS011;6669;42.678;23.332;2023-05-24T11:54:30;1.70;;;1.60;;
13208;SDS011;6669;42.678;23.332;2023-05-24T11:57:00;2.35;;;1.40;;
13208;SDS011;6669;42.678;23.332;2023-05-24T11:59:30;1.63;;;1.52;;
13208;SDS011;6669;42.678;23.332;2023-05-24T12:01:58;1.65;;;1.55;;
13208;SDS011;6669;42.678;23.332;2023-05-24T12:04:28;1.70;;;1.60;;
13208;SDS011;6669;42.678;23.332;2023-05-24T12:06:58;1.58;;;1.48;;
13208;SDS011;6669;42.678;23.332;2023-05-24T12:09:26;2.90;;;1.80;;
13208;SDS011;6669;42.678;23.332;2023-05-24T12:11:55;2.10;;;1.50;;
13208;SDS011;6669;42.678;23.332;2023-05-24T12:14:26;2.10;;;1.90;;
13208;SDS011;6669;42.678;23.332;2023-05-24T12:16:58;1.77;;;1.67;;
13208;SDS011;6669;42.678;23.332;2023-05-24T12:19:29;1.88;;;1.70;;
13208;SDS011;6669;42.678;23.332;2023-05-24T12:22:02;1.92;;;1.80;;
13208;SDS011;6669;42.678;23.332;2023-05-24T12:24:32;1.50;;;1.40;;
13208;SDS011;6669;42.678;23.332;2023-05-24T12:27:00;1.65;;;1.40;;
13208;SDS011;6669;42.678;23.332;2023-05-24T12:29:33;1.60;;;1.50;;
13208;SDS011;6669;42.678;23.332;2023-05-24T12:32:05;1.58;;;1.35;;
13208;SDS011;6669;42.678;23.332;2023-05-24T12:34:39;1.58;;;1.48;;
13208;SDS011;6669;42.678;23.332;2023-05-24T12:37:11;1.60;;;1.50;;
13208;SDS011;6669;42.678;23.332;2023-05-24T12:39:39;2.10;;;1.90;;
13208;SDS011;6669;42.678;23.332;2023-05-24T12:42:09;1.80;;;1.70;;
13208;SDS011;6669;42.678;23.332;2023-05-24T12:44:39;1.60;;;1.50;;
13208;SDS011;6669;42.678;23.332;2023-05-24T12:47:09;1.63;;;1.52;;
13208;SDS011;6669;42.678;23.332;2023-05-24T12:49:37;1.70;;;1.60;;
13208;SDS011;6669;42.678;23.332;2023-05-24T12:52:05;1.58;;;1.48;;
13208;SDS011;6669;42.678;23.332;2023-05-24T12:54:33;1.63;;;1.52;;
13208;SDS011;6669;42.678;23.332;2023-05-24T12:57:01;2.83;;;1.73;;
13208;SDS011;6669;42.678;23.332;2023-05-24T12:59:29;1.90;;;1.80;;
13208;SDS011;6669;42.678;23.332;2023-05-24T13:01:57;1.60;;;1.50;;
13208;SDS011;6669;42.678;23.332;2023-05-24T13:04:27;1.88;;;1.77;;
13208;SDS011;6669;42.678;23.332;2023-05-24T13:06:57;2.10;;;1.75;;
13208;SDS011;6669;42.678;23.332;2023-05-24T13:09:25;1.90;;;1.80;;
13208;SDS011;6669;42.678;23.332;2023-05-24T13:11:54;5.40;;;4.00;;
13208;SDS011;6669;42.678;23.332;2023-05-24T13:14:22;3.20;;;1.55;;
13208;SDS011;6669;42.678;23.332;2023-05-24T13:16:50;3.45;;;1.83;;
13208;SDS011;6669;42.678;23.332;2023-05-24T13:19:18;1.92;;;1.75;;
13208;SDS011;6669;42.678;23.332;2023-05-24T13:21:48;1.80;;;1.70;;
13208;SDS011;6669;42.678;23.332;2023-05-24T13:24:16;3.85;;;2.00;;
13208;SDS011;6669;42.678;23.332;2023-05-24T13:26:45;2.67;;;1.70;;
13208;SDS011;6669;42.678;23.332;2023-05-24T13:29:15;2.85;;;2.28;;
13208;SDS011;6669;42.678;23.332;2023-05-24T13:32:04;2.15;;;1.95;;
13208;SDS011;6669;42.678;23.332;2023-05-24T13:34:33;1.67;;;1.58;;
13208;SDS011;6669;42.678;23.332;2023-05-24T13:37:02;2.00;;;1.77;;
13208;SDS011;6669;42.678;23.332;2023-05-24T13:39:30;1.85;;;1.70;;
13208;SDS011;6669;42.678;23.332;2023-05-24T13:41:59;2.13;;;1.83;;
13208;SDS011;6669;42.678;23.332;2023-05-24T13:44:27;1.67;;;1.55;;
13208;SDS011;6669;42.678;23.332;2023-05-24T13:46:56;3.03;;;2.72;;
13208;SDS011;6669;42.678;23.332;2023-05-24T13:49:25;3.88;;;2.60;;
13208;SDS011;6669;42.678;23.332;2023-05-24T13:51:56;2.00;;;1.90;;
13208;SDS011;6669;42.678;23.332;2023-05-24T13:54:25;2.30;;;2.10;;
13208;SDS011;6669;42.678;23.332;2023-05-24T13:56:53;2.20;;;1.70;;
13208;SDS011;6669;42.678;23.332;2023-05-24T13:59:23;2.30;;;2.10;;
13208;SDS011;6669;42.678;23.332;2023-05-24T14:01:52;2.58;;;2.15;;
13208;SDS011;6669;42.678;23.332;2023-05-24T14:04:20;2.25;;;2.00;;
13208;SDS011;6669;42.678;23.332;2023-05-24T14:06:48;2.40;;;2.20;;
13208;SDS011;6669;42.678;23.332;2023-05-24T14:09:17;2.35;;;2.15;;
13208;SDS011;6669;42.678;23.332;2023-05-24T14:11:48;2.20;;;2.00;;
13208;SDS011;6669;42.678;23.332;2023-05-24T14:14:16;2.60;;;2.17;;
13208;SDS011;6669;42.678;23.332;2023-05-24T14:16:47;2.88;;;2.30;;
13208;SDS011;6669;42.678;23.332;2023-05-24T14:19:17;2.80;;;2.10;;
13208;SDS011;6669;42.678;23.332;2023-05-24T14:21:46;4.38;;;2.00;;
13208;SDS011;6669;42.678;23.332;2023-05-24T14:24:14;1.75;;;1.65;;
13208;SDS011;6669;42.678;23.332;2023-05-24T14:26:43;3.65;;;2.20;;
13208;SDS011;6669;42.678;23.332;2023-05-24T14:29:14;2.88;;;2.10;;
13208;SDS011;6669;42.678;23.332;2023-05-24T14:31:42;2.30;;;2.10;;
13208;SDS011;6669;42.678;23.332;2023-05-24T14:34:12;2.28;;;2.08;;
13208;SDS011;6669;42.678;23.332;2023-05-24T14:36:40;2.42;;;2.00;;
13208;SDS011;6669;42.678;23.332;2023-05-24T14:39:08;2.13;;;2.03;;
13208;SDS011;6669;42.678;23.332;2023-05-24T14:41:36;2.42;;;2.15;;
13208;SDS011;6669;42.678;23.332;2023-05-24T14:44:05;1.90;;;1.80;;
13208;SDS011;6669;42.678;23.332;2023-05-24T14:46:34;2.22;;;1.88;;
13208;SDS011;6669;42.678;23.332;2023-05-24T14:49:02;2.72;;;2.13;;
13208;SDS011;6669;42.678;23.332;2023-05-24T14:51:31;2.60;;;2.20;;
13208;SDS011;6669;42.678;23.332;2023-05-24T14:53:59;3.45;;;3.08;;
13208;SDS011;6669;42.678;23.332;2023-05-24T14:56:27;2.22;;;2.03;;
13208;SDS011;6669;42.678;23.332;2023-05-24T14:58:55;3.38;;;2.30;;
13208;SDS011;6669;42.678;23.332;2023-05-24T15:01:23;2.80;;;2.35;;
13208;SDS011;6669;42.678;23.332;2023-05-24T15:03:54;1.80;;;1.70;;
13208;SDS011;6669;42.678;23.332;2023-05-24T15:06:22;2.00;;;1.80;;
13208;SDS011;6669;42.678;23.332;2023-05-24T15:08:50;2.35;;;2.15;;
13208;SDS011;6669;42.678;23.332;2023-05-24T15:11:18;2.15;;;1.95;;